createdAt,value
2022-11-04T00:02:08.459Z,9.45
2022-11-04T00:04:36.428Z,9.95
2022-11-04T00:07:23.144Z,9.40
2022-11-04T00:09:49.916Z,10.18
2022-11-04T00:12:25.645Z,10.23
2022-11-04T00:14:52.476Z,10.52
2022-11-04T00:17:19.448Z,10.20
2022-11-04T00:20:06.459Z,9.55
2022-11-04T00:22:51.828Z,9.65
2022-11-04T00:25:37.598Z,10.02
2022-11-04T00:28:41.503Z,9.02
2022-11-04T00:31:28.030Z,8.80
2022-11-04T00:33:57.283Z,8.98
2022-11-04T00:36:25.705Z,9.27
2022-11-04T00:38:53.394Z,8.63
2022-11-04T00:41:27.174Z,9.45
2022-11-04T00:43:59.102Z,9.35
2022-11-04T00:46:27.266Z,9.07
2022-11-04T00:48:54.263Z,9.48
2022-11-04T00:51:21.838Z,9.00
2022-11-04T00:53:49.483Z,8.68
2022-11-04T00:56:16.843Z,9.23
2022-11-04T00:58:43.780Z,9.45
2022-11-04T01:01:12.554Z,9.13
2022-11-04T01:03:39.892Z,8.23
2022-11-04T01:06:07.036Z,9.27
2022-11-04T01:08:34.573Z,9.45
2022-11-04T01:11:03.139Z,8.18
2022-11-04T01:13:30.760Z,9.07
2022-11-04T01:16:02.257Z,8.77
2022-11-04T01:18:29.441Z,9.27
2022-11-04T01:21:00.659Z,9.15
2022-11-04T01:23:27.765Z,8.98
2022-11-04T01:25:54.524Z,8.60
2022-11-04T01:28:21.331Z,8.80
2022-11-04T01:30:48.165Z,8.48
2022-11-04T01:33:14.954Z,8.82
2022-11-04T01:35:41.817Z,9.05
2022-11-04T01:38:09.019Z,8.20
2022-11-04T01:40:40.566Z,8.80
2022-11-04T01:43:15.907Z,8.80
2022-11-04T01:45:45.348Z,8.63
2022-11-04T01:48:22.406Z,8.27
2022-11-04T01:50:51.403Z,8.73
2022-11-04T01:53:29.105Z,8.30
2022-11-04T01:55:58.696Z,8.48
2022-11-04T01:58:29.902Z,7.93
2022-11-04T02:00:56.932Z,8.90
2022-11-04T02:03:34.829Z,8.32
2022-11-04T02:06:02.878Z,7.90
2022-11-04T02:08:30.134Z,7.80
2022-11-04T02:11:01.755Z,8.30
2022-11-04T02:13:31.380Z,9.27
2022-11-04T02:16:19.513Z,8.27
2022-11-04T02:19:13.293Z,9.32
2022-11-04T02:21:42.903Z,8.50
2022-11-04T02:24:21.878Z,10.68
2022-11-04T02:27:14.584Z,8.82
2022-11-04T02:30:00.014Z,8.00
2022-11-04T02:32:51.392Z,8.37
2022-11-04T02:35:30.125Z,7.90
2022-11-04T02:38:05.825Z,7.82
2022-11-04T02:41:04.478Z,7.38
2022-11-04T02:43:46.264Z,7.97
2022-11-04T02:46:34.550Z,8.02
2022-11-04T02:49:27.715Z,7.90
2022-11-04T02:52:08.265Z,8.30
2022-11-04T02:55:00.568Z,8.85
2022-11-04T02:57:31.981Z,8.10
2022-11-04T03:00:03.703Z,8.80
2022-11-04T03:02:36.060Z,7.72
2022-11-04T03:05:08.326Z,7.95
2022-11-04T03:07:37.831Z,8.32
2022-11-04T03:10:11.156Z,8.02
2022-11-04T03:12:42.568Z,8.43
2022-11-04T03:15:14.879Z,8.50
2022-11-04T03:17:46.779Z,7.65
2022-11-04T03:20:20.951Z,8.43
2022-11-04T03:22:47.989Z,8.00
2022-11-04T03:25:15.214Z,8.70
2022-11-04T03:28:18.720Z,8.40
2022-11-04T03:30:51.263Z,8.70
2022-11-04T03:33:47.506Z,8.95
2022-11-04T03:36:14.674Z,8.65
2022-11-04T03:38:41.518Z,8.18
2022-11-04T03:41:16.571Z,9.27
2022-11-04T03:43:43.349Z,9.57
2022-11-04T03:46:10.888Z,8.50
2022-11-04T03:48:38.006Z,8.35
2022-11-04T03:51:04.891Z,9.20
2022-11-04T03:53:32.238Z,8.80
2022-11-04T03:56:32.154Z,8.85
2022-11-04T03:59:04.603Z,9.32
2022-11-04T04:01:53.130Z,8.50
2022-11-04T04:04:25.852Z,8.32
2022-11-04T04:06:59.116Z,8.85
2022-11-04T04:09:34.523Z,9.07
2022-11-04T04:12:05.582Z,8.63
2022-11-04T04:14:50.319Z,9.15
2022-11-04T04:17:39.791Z,9.20
2022-11-04T04:20:15.200Z,9.38
2022-11-04T04:22:52.532Z,9.32
2022-11-04T04:25:39.633Z,9.50
2022-11-04T04:28:07.696Z,10.05
2022-11-04T04:30:35.315Z,9.68
2022-11-04T04:33:11.309Z,9.57
2022-11-04T04:35:49.258Z,9.90
2022-11-04T04:38:40.282Z,8.75
2022-11-04T04:41:50.020Z,9.35
2022-11-04T04:44:47.020Z,9.80
2022-11-04T04:47:20.117Z,9.45
2022-11-04T04:50:01.174Z,10.15
2022-11-04T04:52:31.983Z,9.82
2022-11-04T04:54:59.076Z,9.75
2022-11-04T04:57:25.872Z,9.95
2022-11-04T04:59:52.652Z,10.55
2022-11-04T05:02:19.521Z,9.57
2022-11-04T05:04:46.457Z,10.30
2022-11-04T05:07:13.520Z,10.68
2022-11-04T05:09:40.254Z,11.40
2022-11-04T05:12:07.464Z,10.23
2022-11-04T05:14:34.284Z,11.02
2022-11-04T05:17:01.210Z,10.88
2022-11-04T05:19:28.268Z,10.63
2022-11-04T05:21:55.008Z,10.90
2022-11-04T05:24:21.754Z,11.27
2022-11-04T05:26:48.608Z,10.65
2022-11-04T05:31:47.141Z,10.23
2022-11-04T05:34:14.282Z,10.38
2022-11-04T05:36:41.111Z,10.20
2022-11-04T05:39:11.155Z,10.05
2022-11-04T05:41:37.939Z,10.23
2022-11-04T05:44:04.823Z,11.45
2022-11-04T05:46:31.857Z,10.35
2022-11-04T05:48:58.745Z,10.13
2022-11-04T05:51:28.687Z,9.95
2022-11-04T05:53:55.451Z,10.18
2022-11-04T05:56:22.343Z,10.13
2022-11-04T05:58:49.139Z,10.80
2022-11-04T06:01:25.029Z,10.23
2022-11-04T06:06:19.549Z,10.38
2022-11-04T06:08:46.374Z,10.35
2022-11-04T06:11:13.126Z,10.85
2022-11-04T06:13:39.876Z,10.07
2022-11-04T06:16:07.355Z,11.13
2022-11-04T06:18:34.283Z,11.38
2022-11-04T06:21:14.606Z,11.35
2022-11-04T06:23:42.039Z,11.32
2022-11-04T06:26:09.404Z,11.27
2022-11-04T06:28:36.218Z,12.13
2022-11-04T06:31:04.875Z,13.80
2022-11-04T06:33:36.521Z,12.15
2022-11-04T06:36:06.661Z,12.25
2022-11-04T06:38:37.458Z,11.85
2022-11-04T06:43:37.558Z,12.35
2022-11-04T06:46:04.840Z,12.02
2022-11-04T06:48:32.389Z,12.20
2022-11-04T06:51:00.635Z,12.18
2022-11-04T06:53:29.170Z,13.07
2022-11-04T06:56:04.271Z,13.15
2022-11-04T06:58:31.094Z,12.32
2022-11-04T07:00:57.942Z,12.63
2022-11-04T07:03:24.773Z,12.80
2022-11-04T07:05:51.567Z,13.10
2022-11-04T07:08:18.887Z,12.90
2022-11-04T07:10:45.683Z,12.85
2022-11-04T07:13:12.773Z,13.18
2022-11-04T07:15:40.386Z,13.73
2022-11-04T07:18:07.533Z,13.77
2022-11-04T07:20:36.600Z,13.95
2022-11-04T07:23:03.386Z,17.45
2022-11-04T07:25:30.643Z,13.23
2022-11-04T07:28:01.081Z,12.50
2022-11-04T07:30:29.486Z,12.20
2022-11-04T07:32:56.386Z,13.40
2022-11-04T07:35:23.146Z,13.20
2022-11-04T07:37:49.897Z,13.05
2022-11-04T07:40:16.836Z,18.10
2022-11-04T07:42:43.616Z,13.65
2022-11-04T07:45:11.093Z,11.70
2022-11-04T07:47:37.978Z,11.95
2022-11-04T07:50:09.777Z,11.75
2022-11-04T07:52:38.226Z,26.63
2022-11-04T07:55:05.692Z,15.55
2022-11-04T07:57:32.478Z,11.25
2022-11-04T07:59:59.662Z,10.98
2022-11-04T08:02:31.072Z,11.13
2022-11-04T08:05:00.897Z,10.63
2022-11-04T08:07:27.745Z,11.40
2022-11-04T08:09:54.529Z,11.18
2022-11-04T08:12:23.833Z,11.63
2022-11-04T08:14:51.116Z,10.32
2022-11-04T08:17:17.922Z,11.32
2022-11-04T08:19:44.841Z,9.50
2022-11-04T08:22:11.655Z,11.85
2022-11-04T08:24:38.440Z,11.70
2022-11-04T08:27:07.755Z,10.40
2022-11-04T08:29:34.932Z,10.15
2022-11-04T08:32:01.893Z,18.83
2022-11-04T08:34:29.170Z,12.15
2022-11-04T08:36:57.623Z,11.40
2022-11-04T08:39:24.695Z,11.60
2022-11-04T08:41:53.448Z,11.95
2022-11-04T08:44:21.156Z,10.90
2022-11-04T08:46:48.144Z,10.90
2022-11-04T08:49:20.642Z,11.45
2022-11-04T08:51:54.927Z,10.57
2022-11-04T08:54:22.066Z,10.20
2022-11-04T08:56:49.153Z,10.30
2022-11-04T08:59:15.920Z,10.30
2022-11-04T09:01:43.058Z,10.20
2022-11-04T09:04:12.179Z,10.55
2022-11-04T09:06:42.100Z,11.40
2022-11-04T09:09:11.703Z,12.63
2022-11-04T09:11:41.108Z,16.95
2022-11-04T09:14:08.782Z,14.75
2022-11-04T09:16:37.153Z,15.50
2022-11-04T09:19:04.011Z,13.95
2022-11-04T09:21:31.033Z,14.93
2022-11-04T09:23:57.849Z,14.43
2022-11-04T09:26:25.709Z,14.70
2022-11-04T09:28:56.677Z,14.93
2022-11-04T09:31:24.254Z,13.77
2022-11-04T09:33:51.662Z,13.68
2022-11-04T09:36:18.520Z,16.55
2022-11-04T09:38:45.423Z,14.45
2022-11-04T09:41:28.514Z,13.63
2022-11-04T09:44:11.892Z,13.98
2022-11-04T09:46:39.748Z,13.05
2022-11-04T09:49:10.208Z,12.45
2022-11-04T09:51:53.892Z,13.45
2022-11-04T09:54:29.265Z,11.98
2022-11-04T09:56:59.250Z,12.02
2022-11-04T09:59:32.896Z,13.82
2022-11-04T10:02:19.179Z,12.25
2022-11-04T10:04:57.546Z,13.25
2022-11-04T10:07:24.345Z,12.73
2022-11-04T10:10:09.538Z,12.18
2022-11-04T10:13:08.082Z,12.65
2022-11-04T10:16:05.458Z,11.38
2022-11-04T10:19:07.845Z,13.60
2022-11-04T10:21:46.034Z,13.77
2022-11-04T10:24:15.888Z,12.70
2022-11-04T10:27:19.179Z,11.18
2022-11-04T10:30:03.614Z,11.65
2022-11-04T10:32:52.821Z,11.15
2022-11-04T10:35:44.518Z,11.35
2022-11-04T10:38:17.621Z,11.07
2022-11-04T10:40:49.048Z,11.45
2022-11-04T10:43:26.031Z,12.23
2022-11-04T10:46:23.413Z,12.27
2022-11-04T10:49:31.829Z,12.82
2022-11-04T10:51:58.968Z,13.07
2022-11-04T10:54:26.911Z,16.98
2022-11-04T10:56:55.823Z,14.23
2022-11-04T10:59:36.957Z,14.90
2022-11-04T11:02:04.453Z,13.75
2022-11-04T11:04:36.845Z,14.80
2022-11-04T11:07:06.476Z,14.95
2022-11-04T11:09:43.381Z,13.93
2022-11-04T11:12:44.301Z,13.80
2022-11-04T11:14:59.908Z,13.00
2022-11-04T11:17:38.480Z,12.70
2022-11-04T11:20:22.638Z,11.95
2022-11-04T11:22:55.055Z,11.57
2022-11-04T11:25:32.838Z,11.65
2022-11-04T11:28:02.413Z,11.68
2022-11-04T11:30:34.417Z,14.20
2022-11-04T11:33:47.647Z,15.35
2022-11-04T11:36:21.866Z,13.10
2022-11-04T11:39:17.723Z,12.63
2022-11-04T11:42:06.431Z,12.57
2022-11-04T11:44:44.249Z,10.63
2022-11-04T11:47:25.675Z,11.20
2022-11-04T11:50:04.611Z,10.27
2022-11-04T11:52:38.475Z,10.07
2022-11-04T11:55:27.331Z,9.57
2022-11-04T12:01:34.186Z,9.20
2022-11-04T12:10:01.100Z,17.85
2022-11-04T12:12:52.786Z,11.23
2022-11-04T12:15:34.882Z,11.95
2022-11-04T12:18:40.678Z,12.10
2022-11-04T12:21:16.024Z,11.95
2022-11-04T12:23:51.025Z,12.35
2022-11-04T12:26:42.576Z,12.43
2022-11-04T12:29:29.845Z,11.63
2022-11-04T12:32:17.742Z,10.65
2022-11-04T12:35:16.878Z,11.43
2022-11-04T12:38:20.632Z,11.50
2022-11-04T12:41:27.733Z,20.58
2022-11-04T12:46:27.816Z,11.73
2022-11-04T12:49:13.704Z,10.23
2022-11-04T12:52:04.563Z,9.88
2022-11-04T12:54:54.404Z,9.70
2022-11-04T12:57:43.265Z,14.85
2022-11-04T13:00:16.822Z,11.35
2022-11-04T13:02:50.339Z,9.68
2022-11-04T13:05:25.781Z,11.25
2022-11-04T13:08:13.769Z,10.13
2022-11-04T13:10:58.696Z,10.05
2022-11-04T13:13:43.799Z,10.52
2022-11-04T13:16:12.024Z,10.48
2022-11-04T13:18:41.115Z,10.90
2022-11-04T13:21:14.147Z,10.20
2022-11-04T13:24:05.017Z,11.90
2022-11-04T13:26:32.352Z,11.07
2022-11-04T13:29:12.220Z,11.85
2022-11-04T13:31:45.174Z,11.25
2022-11-04T13:34:17.940Z,11.70
2022-11-04T13:37:08.714Z,11.30
2022-11-04T13:39:41.902Z,12.55
2022-11-04T13:42:17.795Z,11.85
2022-11-04T13:47:24.828Z,12.48
2022-11-04T13:49:55.379Z,12.60
2022-11-04T13:52:30.192Z,12.45
2022-11-04T13:55:04.254Z,12.55
2022-11-04T13:57:42.705Z,12.07
2022-11-04T14:00:15.195Z,11.98
2022-11-04T14:02:46.087Z,11.38
2022-11-04T14:05:28.331Z,10.93
2022-11-04T14:08:01.372Z,11.50
2022-11-04T14:10:50.067Z,11.75
2022-11-04T14:13:33.547Z,11.30
2022-11-04T14:16:34.854Z,11.25
2022-11-04T14:19:42.253Z,11.52
2022-11-04T14:22:15.684Z,11.55
2022-11-04T14:24:42.950Z,12.15
2022-11-04T14:27:41.261Z,12.15
2022-11-04T14:30:30.858Z,11.48
2022-11-04T14:33:01.307Z,12.32
2022-11-04T14:35:30.018Z,12.35
2022-11-04T14:37:59.154Z,11.52
2022-11-04T14:40:46.208Z,11.32
2022-11-04T14:43:35.137Z,11.10
2022-11-04T14:46:02.657Z,11.35
2022-11-04T14:48:30.946Z,11.40
2022-11-04T14:50:58.469Z,11.63
2022-11-04T14:53:38.151Z,11.45
2022-11-04T14:56:23.965Z,12.32
2022-11-04T14:58:55.857Z,14.25
2022-11-04T15:01:26.528Z,13.13
2022-11-04T15:04:13.013Z,13.30
2022-11-04T15:06:54.437Z,12.88
2022-11-04T15:09:25.397Z,11.80
2022-11-04T15:12:32.057Z,12.77
2022-11-04T15:15:00.659Z,12.73
2022-11-04T15:17:31.294Z,12.48
2022-11-04T15:20:00.823Z,13.15
2022-11-04T15:22:29.299Z,14.05
2022-11-04T15:24:59.527Z,12.57
2022-11-04T15:27:29.836Z,12.70
2022-11-04T15:30:05.353Z,15.52
2022-11-04T15:32:32.241Z,13.15
2022-11-04T15:34:59.613Z,13.05
2022-11-04T15:37:28.895Z,13.23
2022-11-04T15:39:58.138Z,12.63
2022-11-04T15:42:37.038Z,13.02
2022-11-04T15:45:22.388Z,12.77
2022-11-04T15:47:50.808Z,11.95
2022-11-04T15:50:25.920Z,12.25
2022-11-04T15:52:55.761Z,11.88
2022-11-04T15:55:25.412Z,12.48
2022-11-04T15:57:53.180Z,11.52
2022-11-04T16:00:30.444Z,11.73
2022-11-04T16:02:59.630Z,13.82
2022-11-04T16:05:37.115Z,11.70
2022-11-04T16:08:27.623Z,12.30
2022-11-04T16:11:15.393Z,11.73
2022-11-04T16:13:42.923Z,12.45
2022-11-04T16:16:24.789Z,11.38
2022-11-04T16:18:59.383Z,11.15
2022-11-04T16:21:31.724Z,11.32
2022-11-04T16:24:06.207Z,11.30
2022-11-04T16:26:39.323Z,12.10
2022-11-04T16:29:09.801Z,12.95
2022-11-04T16:31:37.625Z,11.65
2022-11-04T16:34:06.016Z,11.35
2022-11-04T16:36:35.918Z,12.05
2022-11-04T16:39:08.135Z,12.23
2022-11-04T16:41:38.544Z,11.63
2022-11-04T16:44:14.801Z,13.65
2022-11-04T16:46:41.712Z,13.15
2022-11-04T16:49:10.800Z,11.98
2022-11-04T16:51:37.629Z,12.05
2022-11-04T16:54:04.528Z,14.07
2022-11-04T16:56:33.309Z,13.82
2022-11-04T16:59:00.232Z,16.02
2022-11-04T17:01:27.746Z,23.52
2022-11-04T17:03:54.641Z,23.90
2022-11-04T17:06:21.387Z,24.88
2022-11-04T17:08:48.200Z,18.77
2022-11-04T17:11:15.123Z,17.98
2022-11-04T17:13:42.144Z,19.45
2022-11-04T17:16:13.252Z,19.50
2022-11-04T17:18:40.034Z,20.75
2022-11-04T17:21:09.607Z,21.98
2022-11-04T17:23:36.766Z,21.33
2022-11-04T17:26:03.802Z,20.75
2022-11-04T17:28:32.975Z,19.73
2022-11-04T17:31:01.484Z,16.63
2022-11-04T17:33:28.231Z,16.35
2022-11-04T17:35:55.178Z,16.38
2022-11-04T17:38:22.238Z,16.65
2022-11-04T17:41:07.742Z,15.90
2022-11-04T17:43:53.192Z,15.67
2022-11-04T17:46:35.354Z,15.87
2022-11-04T17:49:13.292Z,14.38
2022-11-04T17:51:41.596Z,15.13
2022-11-04T17:54:09.430Z,12.50
2022-11-04T17:56:37.235Z,12.75
2022-11-04T17:59:04.754Z,14.38
2022-11-04T18:01:33.454Z,13.15
2022-11-04T18:04:00.372Z,14.13
2022-11-04T18:06:30.914Z,13.55
2022-11-04T18:08:59.133Z,13.68
2022-11-04T18:11:46.636Z,13.00
2022-11-04T18:14:16.811Z,13.32
2022-11-04T18:16:46.305Z,13.25
2022-11-04T18:19:14.084Z,14.27
2022-11-04T18:21:40.919Z,15.90
2022-11-04T18:24:08.115Z,13.93
2022-11-04T18:26:35.182Z,13.73
2022-11-04T18:29:03.544Z,14.95
2022-11-04T18:31:33.199Z,14.82
2022-11-04T18:34:01.950Z,14.80
2022-11-04T18:36:30.300Z,15.40
2022-11-04T18:38:57.365Z,16.02
2022-11-04T18:41:24.256Z,14.80
2022-11-04T18:43:51.013Z,14.32
2022-11-04T18:46:17.972Z,15.05
2022-11-04T18:48:49.329Z,14.07
2022-11-04T18:51:19.195Z,15.13
2022-11-04T18:53:46.800Z,14.38
2022-11-04T18:56:16.859Z,15.45
2022-11-04T18:58:46.866Z,15.27
2022-11-04T19:01:22.503Z,15.77
2022-11-04T19:03:50.875Z,14.45
2022-11-04T19:06:20.296Z,14.38
2022-11-04T19:08:48.136Z,15.38
2022-11-04T19:11:20.989Z,20.00
2022-11-04T19:13:52.532Z,16.35
2022-11-04T19:16:20.265Z,14.68
2022-11-04T19:18:49.776Z,14.25
2022-11-04T19:21:24.308Z,13.30
2022-11-04T19:23:51.363Z,15.13
2022-11-04T19:26:24.450Z,15.10
2022-11-04T19:28:51.934Z,15.82
2022-11-04T19:31:27.153Z,16.10
2022-11-04T19:33:55.115Z,15.40
2022-11-04T19:36:23.279Z,15.70
2022-11-04T19:38:55.121Z,15.98
2022-11-04T19:41:41.759Z,15.70
2022-11-04T19:44:15.852Z,15.80
2022-11-04T19:46:43.113Z,16.63
2022-11-04T19:49:10.695Z,16.42
2022-11-04T19:51:37.815Z,14.90
2022-11-04T19:54:05.406Z,16.48
2022-11-04T19:56:33.730Z,17.00
2022-11-04T19:59:05.859Z,17.20
2022-11-04T20:01:34.492Z,17.90
2022-11-04T20:04:02.968Z,16.95
2022-11-04T20:06:32.275Z,17.00
2022-11-04T20:09:05.277Z,15.90
2022-11-04T20:11:33.483Z,17.02
2022-11-04T20:14:06.514Z,16.90
2022-11-04T20:16:39.524Z,17.40
2022-11-04T20:19:06.921Z,17.05
2022-11-04T20:21:36.086Z,19.13
2022-11-04T20:24:05.961Z,18.63
2022-11-04T20:26:36.984Z,18.65
2022-11-04T20:29:04.443Z,18.15
2022-11-04T20:31:34.087Z,19.23
2022-11-04T20:34:05.013Z,20.25
2022-11-04T20:36:33.186Z,19.20
2022-11-04T20:39:06.249Z,18.70
2022-11-04T20:41:33.619Z,20.17
2022-11-04T20:44:00.406Z,19.90
2022-11-04T20:46:31.622Z,23.05
2022-11-04T20:48:59.172Z,21.45
2022-11-04T20:51:32.307Z,20.15
2022-11-04T20:54:02.003Z,20.13
2022-11-04T20:56:32.099Z,20.00
2022-11-04T20:59:00.320Z,19.70
2022-11-04T21:01:34.142Z,20.25
2022-11-04T21:04:03.679Z,19.20
2022-11-04T21:06:31.241Z,20.77
2022-11-04T21:08:59.279Z,20.75
2022-11-04T21:11:31.935Z,21.23
2022-11-04T21:13:59.693Z,19.25
2022-11-04T21:16:26.845Z,20.17
2022-11-04T21:18:54.518Z,21.55
2022-11-04T21:21:21.404Z,21.20
2022-11-04T21:23:48.715Z,20.52
2022-11-04T21:26:27.923Z,22.75
2022-11-04T21:28:56.382Z,20.40
2022-11-04T21:31:24.109Z,19.83
2022-11-04T21:33:52.062Z,20.27
2022-11-04T21:36:20.081Z,19.73
2022-11-04T21:38:47.251Z,20.10
2022-11-04T21:41:28.121Z,19.98
2022-11-04T21:44:03.053Z,19.05
2022-11-04T21:46:31.982Z,20.02
2022-11-04T21:48:59.440Z,20.67
2022-11-04T21:51:29.509Z,21.02
2022-11-04T21:53:57.127Z,21.35
2022-11-04T21:56:26.096Z,22.08
2022-11-04T21:58:53.985Z,20.95
2022-11-04T22:01:29.953Z,20.05
2022-11-04T22:03:59.831Z,23.42
2022-11-04T22:06:34.530Z,23.48
2022-11-04T22:09:02.457Z,22.05
2022-11-04T22:11:31.892Z,20.77
2022-11-04T22:14:04.656Z,22.50
2022-11-04T22:16:33.940Z,24.02
2022-11-04T22:19:03.540Z,23.08
2022-11-04T22:21:31.486Z,23.33
2022-11-04T22:23:59.468Z,25.20
2022-11-04T22:26:28.596Z,25.33
2022-11-04T22:28:56.456Z,24.27
2022-11-04T22:31:26.234Z,24.80
2022-11-04T22:33:53.988Z,24.08
2022-11-04T22:36:20.994Z,22.83
2022-11-04T22:38:47.770Z,22.90
2022-11-04T22:41:18.177Z,22.10
2022-11-04T22:43:45.004Z,22.75
2022-11-04T22:46:14.939Z,24.33
2022-11-04T22:48:41.718Z,24.02
2022-11-04T22:51:09.878Z,23.75
2022-11-04T22:53:37.672Z,22.38
2022-11-04T22:56:06.528Z,21.30
2022-11-04T22:58:33.499Z,24.23
2022-11-04T23:01:03.862Z,23.35
2022-11-04T23:03:30.887Z,22.40
2022-11-04T23:05:59.425Z,22.42
2022-11-04T23:08:28.838Z,23.63
2022-11-04T23:11:19.671Z,22.98
2022-11-04T23:14:19.753Z,22.08
2022-11-04T23:17:08.048Z,23.40
2022-11-04T23:19:35.031Z,23.58
2022-11-04T23:22:20.703Z,21.85
2022-11-04T23:25:06.120Z,23.58
2022-11-04T23:28:09.469Z,21.43
2022-11-04T23:30:42.800Z,22.60
2022-11-04T23:33:12.380Z,28.55
2022-11-04T23:36:04.122Z,40.92
2022-11-04T23:38:31.925Z,36.50
2022-11-04T23:41:19.905Z,25.50
2022-11-04T23:43:47.196Z,26.90
2022-11-04T23:46:35.415Z,25.60
2022-11-04T23:49:23.656Z,24.27
2022-11-04T23:52:08.869Z,24.70
2022-11-04T23:54:54.433Z,23.70
2022-11-04T23:57:40.009Z,22.43
